^^
Station Historical Data
Daily Summary for October 16, 2017 Units:  Metric    English   Both
« Previous Day
Next Day »
Daily Weekly Monthly Yearly Custom
  High: Low: Average:
Temperature: 22.5 °C 9.6 °C 13.8 °C
Dew Point: 7.2 °C -4.2 °C 3.6 °C
Humidity: 80% 17% 56%
Wind Speed: 28.8km/h 0km/h 11.9km/h
Wind Gust: 33.8km/h - -
Wind- - South
Pressure: 1018.8 hPa 1013.8 hPa -
Precipitation: 0 mm    
Historical Graphs
 
 
Tabular Data for October 16, 2017
Time Temperature Dew Point Pressure Wind Wind Speed Wind Gust Humidity Rainfall Rate (Hourly) solar Conditions
01:36 11.9 °C 5.5 °C 1014.8 hPa Calm     65% 0 mm 0.0 W/m2
01:41 11.8 °C 5.7 °C 1015.1 hPa Calm     66% 0 mm 0.0 W/m2
01:46 11.9 °C 5.7 °C 1014.8 hPa Calm     66% 0 mm 0.0 W/m2
01:51 11.8 °C 5.4 °C 1014.8 hPa Calm     65% 0 mm 0.0 W/m2
01:56 11.7 °C 5.6 °C 1014.8 hPa Calm     66% 0 mm 0.0 W/m2
02:01 11.7 °C 5.6 °C 1014.8 hPa SSE 1.4 km/h 1.6 km/h 66% 0 mm 0.0 W/m2
02:06 11.7 °C 5.8 °C 1014.8 hPa Calm     67% 0 mm 0.0 W/m2
02:17 11.6 °C 5.9 °C 1014.4 hPa SSE 9.7 km/h 9.7 km/h 68% 0 mm 0.0 W/m2
02:27 11.6 °C 5.9 °C 1014.4 hPa SSE 11.1 km/h 12.9 km/h 68% 0 mm 0.0 W/m2
02:37 11.5 °C 5.8 °C 1014.4 hPa SSE 9.7 km/h 14.5 km/h 68% 0 mm 0.0 W/m2
02:57 11.6 °C 5.9 °C 1014.8 hPa SSE 11.1 km/h 14.5 km/h 68% 0 mm 0.0 W/m2
03:12 11.5 °C 6 °C 1014.4 hPa SSE 13 km/h 17.7 km/h 69% 0 mm 0.0 W/m2
03:22 11.3 °C 5.8 °C 1014.1 hPa SSE 13 km/h 14.5 km/h 69% 0 mm 0.0 W/m2
03:27 11.2 °C 5.9 °C 1014.1 hPa SSE 9.7 km/h 12.9 km/h 70% 0 mm 0.0 W/m2
03:37 11.1 °C 5.8 °C 1014.1 hPa SSE 4.7 km/h 8 km/h 70% 0 mm 0.0 W/m2
03:42 11.1 °C 5.8 °C 1013.8 hPa SSE 7.9 km/h 9.7 km/h 70% 0 mm 0.0 W/m2
03:48 10.9 °C 5.8 °C 1014.1 hPa SSE 6.4 km/h 8 km/h 71% 0 mm 0.0 W/m2
03:53 10.8 °C 5.8 °C 1014.1 hPa SSE 4.7 km/h 6.4 km/h 71% 0 mm 0.0 W/m2
04:03 10.6 °C 5.8 °C 1014.1 hPa SSE 4.7 km/h 4.8 km/h 72% 0 mm 0.0 W/m2
04:09 10.5 °C 5.7 °C 1014.1 hPa Calm   3.2 km/h 72% 0 mm 0.0 W/m2
04:14 10.5 °C 5.9 °C 1013.8 hPa Calm     73% 0 mm 0.0 W/m2
04:19 10.4 °C 5.6 °C 1013.8 hPa Calm     72% 0 mm 0.0 W/m2
04:24 10.2 °C 5.4 °C 1013.8 hPa Calm     72% 0 mm 0.0 W/m2
04:29 10.1 °C 5.5 °C 1014.1 hPa Calm     73% 0 mm 0.0 W/m2
04:34 10 °C 5.4 °C 1014.1 hPa Calm     73% 0 mm 0.0 W/m2
04:39 9.9 °C 5.5 °C 1014.1 hPa Calm     74% 0 mm 0.0 W/m2
04:44 9.9 °C 5.7 °C 1014.1 hPa Calm     75% 0 mm 0.0 W/m2
04:50 9.9 °C 5.7 °C 1014.4 hPa Calm     75% 0 mm 0.0 W/m2
04:56 9.9 °C 5.7 °C 1014.4 hPa Calm     75% 0 mm 0.0 W/m2
05:01 9.8 °C 5.8 °C 1014.4 hPa Calm     76% 0 mm 0.0 W/m2
05:11 9.6 °C 5.6 °C 1014.4 hPa Calm     76% 0 mm 0.0 W/m2
05:31 9.9 °C 6.2 °C 1014.4 hPa Calm     78% 0 mm 0.0 W/m2
05:36 9.9 °C 6.1 °C 1014.4 hPa Calm     77% 0 mm 0.0 W/m2
05:41 9.8 °C 6.1 °C 1014.8 hPa Calm     78% 0 mm 0.0 W/m2
05:46 9.8 °C 6.1 °C 1014.8 hPa Calm     78% 0 mm 0.0 W/m2
05:52 9.8 °C 6.1 °C 1014.8 hPa Calm     78% 0 mm 0.0 W/m2
05:57 9.8 °C 6.1 °C 1015.1 hPa Calm     78% 0 mm 0.0 W/m2
06:02 9.8 °C 6.3 °C 1015.1 hPa Calm     79% 0 mm 0.0 W/m2
06:09 9.8 °C 6.3 °C 1015.1 hPa Calm     79% 0 mm 0.0 W/m2
06:15 9.7 °C 6.2 °C 1015.1 hPa Calm     79% 0 mm 0.0 W/m2
06:22 9.6 °C 6.1 °C 1015.1 hPa Calm     79% 0 mm 9.0 W/m2
06:43 9.8 °C 6.3 °C 1015.8 hPa SSE 14.3 km/h 17.7 km/h 79% 0 mm 30.0 W/m2
06:53 10.2 °C 6.7 °C 1016.1 hPa South 17.7 km/h 25.7 km/h 79% 0 mm 113.0 W/m2
07:03 10.3 °C 6.8 °C 1016.1 hPa South 20.9 km/h 30.6 km/h 79% 0 mm 114.0 W/m2
07:22 10.2 °C 6.9 °C 1016.5 hPa South 19.5 km/h 32.2 km/h 80% 0 mm 105.0 W/m2
07:34 10.3 °C 7 °C 1016.5 hPa South 22.7 km/h 29 km/h 80% 0 mm 156.0 W/m2
07:48 10.5 °C 7 °C 1016.8 hPa South 27.4 km/h 27.4 km/h 79% 0 mm 176.0 W/m2
07:55 10.8 °C 7.1 °C 1016.8 hPa South 24.1 km/h 27.4 km/h 78% 0 mm 214.0 W/m2
08:01 10.8 °C 7.1 °C 1016.8 hPa South 19.5 km/h 24.1 km/h 78% 0 mm 258.0 W/m2
08:14 11.1 °C 7.2 °C 1017.2 hPa South 19.5 km/h 24.1 km/h 77% 0 mm 239.0 W/m2
08:23 11.6 °C 7.1 °C 1017.2 hPa South 16.3 km/h 25.7 km/h 74% 0 mm 635.0 W/m2
08:38 12.1 °C 7 °C 1017.2 hPa South 24.1 km/h 30.6 km/h 71% 0 mm 482.0 W/m2
08:46 12.1 °C 7 °C 1017.2 hPa South 24.1 km/h 30.6 km/h 71% 0 mm 482.0 W/m2
08:53 12.3 °C 6.8 °C 1017.5 hPa South 16.3 km/h 22.5 km/h 69% 0 mm 520.0 W/m2
09:23 12.9 °C 6.5 °C 1017.5 hPa South 17.7 km/h 25.7 km/h 65% 0 mm 580.0 W/m2
09:43 13.5 °C 6.4 °C 1017.5 hPa South 13 km/h 20.9 km/h 62% 0 mm 643.0 W/m2
10:43 15.3 °C 5.2 °C 1017.5 hPa South 20.9 km/h 25.7 km/h 51% 0 mm 796.0 W/m2
11:24 17.2 °C 4.2 °C 1017.2 hPa South 22.7 km/h 27.4 km/h 42% 0 mm 868.0 W/m2
11:40 17.7 °C 2.4 °C 1017.2 hPa SSW 22.7 km/h 27.4 km/h 36% 0 mm 861.0 W/m2
12:06 18.4 °C 0 °C 1016.8 hPa SSW 25.9 km/h 27.4 km/h 29% 0 mm 923.0 W/m2
12:21 18.5 °C 1 °C 1016.8 hPa SW 20.9 km/h 25.7 km/h 31% 0 mm 925.0 W/m2
12:37 19.3 °C 0.8 °C 1016.8 hPa SSW 16.3 km/h 20.9 km/h 29% 0 mm 933.0 W/m2
12:52 19.6 °C 0.6 °C 1016.5 hPa SSW 17.7 km/h 25.7 km/h 28% 0 mm 937.0 W/m2
13:04 20 °C -1.2 °C 1016.5 hPa South 20.9 km/h 32.2 km/h 24% 0 mm 930.0 W/m2
13:25 20.3 °C -0.9 °C 1016.1 hPa South 16.3 km/h 24.1 km/h 24% 0 mm 923.0 W/m2
13:36 20.9 °C -2.9 °C 1016.1 hPa South 16.3 km/h 29 km/h 20% 0 mm 909.0 W/m2
14:07 21 °C -4.2 °C 1015.8 hPa SSW 20.9 km/h 30.6 km/h 18% 0 mm 874.0 W/m2
14:32 21.3 °C -1.3 °C 1015.5 hPa South 25.9 km/h 30.6 km/h 22% 0 mm 824.0 W/m2
14:47 21.7 °C -2.9 °C 1015.1 hPa South 28.8 km/h 33.8 km/h 19% 0 mm 791.0 W/m2
15:16 22.1 °C -3.3 °C 1015.1 hPa South 24.1 km/h 30.6 km/h 18% 0 mm 717.0 W/m2
15:29 22 °C -4.2 °C 1015.1 hPa SSW 19.5 km/h 27.4 km/h 17% 0 mm 679.0 W/m2
15:40 22.2 °C -2.5 °C 1014.8 hPa South 20.9 km/h 27.4 km/h 19% 0 mm 650.0 W/m2
15:51 22.5 °C -2.3 °C 1014.8 hPa SSW 24.1 km/h 27.4 km/h 19% 0 mm 617.0 W/m2
16:17 22.3 °C -3.9 °C 1014.4 hPa SW 19.5 km/h 33.8 km/h 17% 0 mm 541.0 W/m2
17:01 22.1 °C -2.6 °C 1014.4 hPa SSW 22.7 km/h 25.7 km/h 19% 0 mm 383.0 W/m2
17:35 21.6 °C -3.7 °C 1015.1 hPa SSW 27.4 km/h 30.6 km/h 18% 0 mm 258.0 W/m2
17:49 21.4 °C -3.9 °C 1015.1 hPa SSW 20.9 km/h 30.6 km/h 18% 0 mm 220.0 W/m2
18:03 20.9 °C -1.6 °C 1015.1 hPa South 27.4 km/h 30.6 km/h 22% 0 mm 153.0 W/m2
18:16 20.6 °C -0.1 °C 1015.5 hPa South 17.7 km/h 27.4 km/h 25% 0 mm 88.0 W/m2
18:58 19.2 °C 0.2 °C 1016.1 hPa South 14.3 km/h 19.3 km/h 28% 0 mm 7.0 W/m2
19:53 18 °C 0.6 °C 1016.5 hPa South 14.3 km/h 17.7 km/h 31% 0 mm 0.0 W/m2
20:09 17.6 °C 1.1 °C 1016.8 hPa South 17.7 km/h 24.1 km/h 33% 0 mm 0.0 W/m2
20:39 16.3 °C 1.2 °C 1017.2 hPa South 16.3 km/h 24.1 km/h 36% 0 mm 0.0 W/m2
20:54 15.8 °C 0.8 °C 1017.5 hPa South 19.5 km/h 25.7 km/h 36% 0 mm 0.0 W/m2
21:50 14.2 °C 0.1 °C 1018.2 hPa South 16.3 km/h 22.5 km/h 38% 0 mm 0.0 W/m2
22:04 13.9 °C -0.2 °C 1018.5 hPa South 13 km/h 17.7 km/h 38% 0 mm 0.0 W/m2
22:15 13.6 °C -0.1 °C 1018.5 hPa South 16.3 km/h 24.1 km/h 39% 0 mm 0.0 W/m2
22:23 13.3 °C -0.4 °C 1018.8 hPa South 20.9 km/h 25.7 km/h 39% 0 mm 0.0 W/m2
22:30 13.1 °C -0.2 °C 1018.8 hPa South 13 km/h 19.3 km/h 40% 0 mm 0.0 W/m2
Canyon Roadhouse, Fishriver Canyon, Namibia
Compliments of Weather Underground - 2 mb